createdAt,value
2023-02-11T00:01:10.828Z,88.80
2023-02-11T00:03:39.009Z,88.80
2023-02-11T00:06:10.550Z,88.70
2023-02-11T00:08:38.448Z,88.70
2023-02-11T00:11:06.226Z,88.70
2023-02-11T00:13:33.797Z,88.80
2023-02-11T00:16:06.076Z,88.80
2023-02-11T00:18:33.636Z,88.80
2023-02-11T00:21:05.445Z,88.90
2023-02-11T00:23:32.877Z,88.90
2023-02-11T00:26:00.381Z,89.00
2023-02-11T00:28:27.852Z,89.00
2023-02-11T00:30:56.262Z,89.00
2023-02-11T00:33:24.049Z,89.00
2023-02-11T00:35:51.823Z,89.10
2023-02-11T00:38:19.481Z,89.20
2023-02-11T00:40:46.896Z,89.30
2023-02-11T00:43:14.392Z,89.30
2023-02-11T00:45:41.794Z,89.40
2023-02-11T00:48:09.186Z,89.50
2023-02-11T00:50:36.607Z,89.50
2023-02-11T00:53:04.207Z,89.60
2023-02-11T00:55:31.693Z,89.60
2023-02-11T00:58:00.248Z,89.60
2023-02-11T01:00:28.034Z,89.60
2023-02-11T01:02:55.609Z,89.60
2023-02-11T01:05:23.645Z,89.60
2023-02-11T01:07:51.258Z,89.60
2023-02-11T01:10:18.868Z,89.60
2023-02-11T01:12:46.503Z,89.60
2023-02-11T01:15:15.076Z,89.60
2023-02-11T01:17:42.525Z,89.60
2023-02-11T01:20:14.063Z,89.60
2023-02-11T01:22:41.450Z,89.60
2023-02-11T01:25:09.326Z,89.50
2023-02-11T01:27:37.115Z,89.50
2023-02-11T01:30:05.866Z,89.50
2023-02-11T01:32:33.532Z,89.60
2023-02-11T01:35:01.067Z,89.50
2023-02-11T01:37:28.876Z,89.50
2023-02-11T01:39:57.990Z,89.60
2023-02-11T01:42:25.491Z,89.50
2023-02-11T01:44:54.316Z,89.60
2023-02-11T01:47:22.012Z,89.50
2023-02-11T01:49:55.551Z,89.50
2023-02-11T01:52:28.170Z,89.30
2023-02-11T01:55:15.734Z,89.20
2023-02-11T01:57:45.151Z,89.00
2023-02-11T02:00:35.693Z,88.80
2023-02-11T02:03:05.988Z,88.60
2023-02-11T02:05:40.394Z,88.40
2023-02-11T02:08:13.831Z,88.30
2023-02-11T02:10:43.441Z,88.10
2023-02-11T02:13:10.966Z,87.90
2023-02-11T02:15:39.198Z,87.80
2023-02-11T02:18:06.718Z,87.70
2023-02-11T02:20:52.787Z,87.60
2023-02-11T02:23:23.565Z,87.60
2023-02-11T02:25:51.332Z,87.60
2023-02-11T02:28:37.517Z,87.60
2023-02-11T02:31:08.131Z,87.70
2023-02-11T02:33:51.073Z,87.70
2023-02-11T02:36:23.072Z,87.60
2023-02-11T02:38:53.797Z,87.60
2023-02-11T02:41:30.085Z,87.60
2023-02-11T02:43:57.680Z,87.70
2023-02-11T02:46:26.745Z,87.60
2023-02-11T02:48:54.908Z,87.60
2023-02-11T02:51:41.030Z,87.60
2023-02-11T02:54:11.573Z,87.50
2023-02-11T02:56:45.427Z,87.40
2023-02-11T02:59:18.930Z,87.40
2023-02-11T03:01:59.695Z,87.40
2023-02-11T03:04:27.222Z,87.30
2023-02-11T03:07:03.009Z,87.40
2023-02-11T03:09:33.813Z,87.40
2023-02-11T03:12:02.210Z,87.30
2023-02-11T03:14:30.900Z,87.30
2023-02-11T03:16:59.600Z,87.30
2023-02-11T03:19:29.479Z,87.30
2023-02-11T03:21:57.765Z,87.40
2023-02-11T03:24:30.684Z,87.40
2023-02-11T03:27:01.829Z,87.30
2023-02-11T03:29:39.233Z,87.30
2023-02-11T03:32:20.081Z,87.20
2023-02-11T03:35:06.064Z,87.10
2023-02-11T03:37:36.793Z,87.00
2023-02-11T03:40:10.242Z,87.00
2023-02-11T03:42:49.982Z,87.00
2023-02-11T03:45:20.040Z,87.10
2023-02-11T03:47:50.104Z,87.20
2023-02-11T03:50:18.154Z,87.20
2023-02-11T03:52:46.628Z,87.30
2023-02-11T03:55:17.205Z,87.30
2023-02-11T03:57:44.730Z,87.30
2023-02-11T04:00:12.626Z,87.30
2023-02-11T04:02:40.480Z,87.30
2023-02-11T04:05:08.670Z,87.30
2023-02-11T04:07:36.231Z,87.30
2023-02-11T04:10:04.475Z,87.30
2023-02-11T04:12:31.918Z,87.20
2023-02-11T04:14:59.377Z,87.20
2023-02-11T04:17:26.816Z,87.10
2023-02-11T04:19:54.251Z,87.10
2023-02-11T04:22:21.662Z,87.00
2023-02-11T04:24:49.170Z,86.90
2023-02-11T04:27:16.913Z,86.80
2023-02-11T04:29:44.372Z,86.70
2023-02-11T04:32:12.306Z,86.60
2023-02-11T04:34:39.942Z,86.50
2023-02-11T04:37:08.457Z,86.50
2023-02-11T04:39:36.122Z,86.50
2023-02-11T04:42:03.551Z,86.50
2023-02-11T04:44:31.022Z,86.50
2023-02-11T04:46:58.465Z,86.60
2023-02-11T04:49:25.978Z,86.60
2023-02-11T04:51:53.348Z,86.60
2023-02-11T04:54:20.752Z,86.60
2023-02-11T04:56:48.312Z,86.60
2023-02-11T04:59:15.795Z,86.70
2023-02-11T05:01:43.229Z,86.70
2023-02-11T05:04:10.743Z,86.70
2023-02-11T05:06:38.841Z,86.70
2023-02-11T05:09:06.341Z,86.70
2023-02-11T05:11:34.068Z,86.70
2023-02-11T05:14:01.536Z,86.70
2023-02-11T05:16:28.941Z,86.70
2023-02-11T05:18:56.654Z,86.70
2023-02-11T05:21:24.051Z,86.80
2023-02-11T05:23:51.485Z,86.90
2023-02-11T05:26:19.125Z,86.90
2023-02-11T05:28:46.552Z,87.00
2023-02-11T05:31:14.906Z,87.00
2023-02-11T05:33:43.050Z,87.00
2023-02-11T05:36:11.724Z,87.10
2023-02-11T05:38:39.964Z,87.10
2023-02-11T05:41:07.513Z,87.10
2023-02-11T05:43:35.759Z,87.10
2023-02-11T05:46:04.066Z,87.10
2023-02-11T05:48:31.672Z,87.10
2023-02-11T05:50:59.282Z,87.10
2023-02-11T05:53:26.804Z,87.20
2023-02-11T05:55:54.292Z,87.20
2023-02-11T05:58:21.727Z,87.20
2023-02-11T06:00:49.270Z,87.30
2023-02-11T06:03:16.745Z,87.30
2023-02-11T06:05:44.823Z,87.30
2023-02-11T06:08:12.618Z,87.30
2023-02-11T06:10:42.589Z,87.30
2023-02-11T06:13:10.104Z,87.40
2023-02-11T06:15:37.609Z,87.40
2023-02-11T06:18:05.228Z,87.40
2023-02-11T06:20:32.859Z,87.40
2023-02-11T06:23:00.473Z,87.40
2023-02-11T06:25:28.066Z,87.40
2023-02-11T06:27:55.706Z,87.40
2023-02-11T06:30:23.184Z,87.50
2023-02-11T06:32:51.268Z,87.50
2023-02-11T06:35:18.948Z,87.50
2023-02-11T06:37:47.048Z,87.50
2023-02-11T06:40:14.457Z,87.50
2023-02-11T06:42:41.988Z,87.50
2023-02-11T06:45:10.944Z,87.60
2023-02-11T06:47:39.047Z,87.60
2023-02-11T06:50:07.652Z,87.60
2023-02-11T06:52:35.229Z,87.60
2023-02-11T06:55:02.847Z,87.60
2023-02-11T06:57:30.995Z,87.70
2023-02-11T06:59:58.601Z,87.70
2023-02-11T07:02:26.109Z,87.70
2023-02-11T07:04:53.569Z,87.80
2023-02-11T07:07:21.074Z,87.80
2023-02-11T07:09:48.470Z,87.80
2023-02-11T07:12:15.885Z,87.90
2023-02-11T07:14:43.353Z,87.90
2023-02-11T07:17:10.831Z,87.90
2023-02-11T07:19:38.250Z,87.90
2023-02-11T07:22:05.649Z,87.90
2023-02-11T07:24:33.074Z,88.00
2023-02-11T07:27:00.549Z,88.00
2023-02-11T07:29:27.977Z,88.00
2023-02-11T07:31:55.448Z,88.00
2023-02-11T07:34:23.029Z,88.00
2023-02-11T07:36:50.484Z,88.00
2023-02-11T07:39:17.929Z,88.00
2023-02-11T07:41:47.871Z,88.00
2023-02-11T07:44:15.412Z,88.00
2023-02-11T07:46:45.229Z,88.00
2023-02-11T07:49:12.901Z,88.00
2023-02-11T07:51:40.316Z,88.10
2023-02-11T07:54:08.309Z,88.10
2023-02-11T07:56:35.698Z,88.10
2023-02-11T07:59:03.709Z,88.00
2023-02-11T08:01:31.592Z,88.00
2023-02-11T08:03:59.671Z,88.10
2023-02-11T08:06:29.596Z,88.10
2023-02-11T08:08:57.235Z,88.00
2023-02-11T08:11:26.347Z,88.00
2023-02-11T08:13:55.420Z,88.00
2023-02-11T08:16:24.352Z,88.00
2023-02-11T08:18:52.414Z,88.00
2023-02-11T08:21:20.348Z,88.00
2023-02-11T08:23:48.131Z,88.00
2023-02-11T08:26:17.107Z,88.00
2023-02-11T08:28:45.713Z,88.00
2023-02-11T08:31:15.196Z,88.00
2023-02-11T08:33:42.734Z,88.00
2023-02-11T08:36:14.830Z,88.00
2023-02-11T08:38:42.470Z,87.90
2023-02-11T08:41:10.426Z,87.80
2023-02-11T08:43:41.728Z,87.80
2023-02-11T08:46:10.258Z,87.70
2023-02-11T08:48:37.781Z,87.60
2023-02-11T08:51:09.538Z,87.40
2023-02-11T08:53:37.041Z,87.30
2023-02-11T08:56:04.600Z,87.20
2023-02-11T08:58:32.384Z,87.10
2023-02-11T09:00:59.887Z,86.90
2023-02-11T09:03:27.694Z,86.80
2023-02-11T09:05:55.219Z,86.60
2023-02-11T09:08:22.807Z,86.50
2023-02-11T09:10:50.564Z,86.30
2023-02-11T09:13:21.282Z,86.20
2023-02-11T09:15:48.727Z,86.10
2023-02-11T09:18:16.274Z,86.00
2023-02-11T09:20:43.717Z,85.90
2023-02-11T09:23:11.287Z,85.80
2023-02-11T09:25:39.473Z,85.60
2023-02-11T09:28:07.531Z,85.50
2023-02-11T09:30:36.637Z,85.40
2023-02-11T09:33:04.360Z,85.40
2023-02-11T09:35:33.136Z,85.30
2023-02-11T09:38:00.542Z,85.20
2023-02-11T09:40:28.075Z,85.00
2023-02-11T09:43:03.005Z,84.90
2023-02-11T09:45:31.988Z,84.80
2023-02-11T09:48:03.269Z,84.80
2023-02-11T09:50:36.721Z,84.80
2023-02-11T09:53:10.399Z,84.70
2023-02-11T09:55:43.220Z,84.50
2023-02-11T09:58:15.404Z,84.30
2023-02-11T10:00:42.899Z,84.00
2023-02-11T10:03:10.252Z,83.70
2023-02-11T10:05:40.766Z,83.50
2023-02-11T10:08:16.837Z,83.60
2023-02-11T10:10:44.477Z,83.70
2023-02-11T10:13:30.644Z,83.70
2023-02-11T10:16:03.617Z,83.80
2023-02-11T10:18:34.063Z,83.60
2023-02-11T10:21:01.460Z,83.60
2023-02-11T10:23:34.465Z,83.60
2023-02-11T10:26:02.524Z,83.60
2023-02-11T10:28:31.308Z,83.50
2023-02-11T10:31:00.890Z,83.30
2023-02-11T10:33:28.494Z,83.20
2023-02-11T10:35:55.949Z,83.00
2023-02-11T10:38:23.359Z,83.00
2023-02-11T10:40:51.036Z,82.90
2023-02-11T10:43:20.565Z,82.70
2023-02-11T10:45:50.051Z,82.70
2023-02-11T10:48:36.593Z,82.50
2023-02-11T10:51:27.036Z,82.50
2023-02-11T10:54:19.418Z,82.30
2023-02-11T10:56:50.364Z,82.10
2023-02-11T10:59:23.401Z,81.80
2023-02-11T11:01:56.729Z,81.60
2023-02-11T11:04:30.604Z,81.40
2023-02-11T11:07:09.650Z,81.40
2023-02-11T11:10:03.723Z,81.30
2023-02-11T11:12:31.187Z,81.10
2023-02-11T11:15:21.990Z,81.10
2023-02-11T11:17:50.293Z,81.00
2023-02-11T11:20:32.441Z,80.80
2023-02-11T11:23:12.460Z,80.90
2023-02-11T11:25:41.396Z,80.70
2023-02-11T11:28:18.919Z,80.80
2023-02-11T11:30:46.528Z,80.90
2023-02-11T11:33:25.966Z,80.90
2023-02-11T11:36:09.810Z,81.00
2023-02-11T11:38:38.654Z,81.00
2023-02-11T11:41:18.463Z,81.00
2023-02-11T11:43:56.085Z,81.10
2023-02-11T11:46:25.499Z,81.10
2023-02-11T11:48:56.349Z,81.00
2023-02-11T11:51:24.259Z,80.90
2023-02-11T11:53:55.265Z,80.90
2023-02-11T11:56:24.727Z,80.70
2023-02-11T11:58:54.416Z,80.90
2023-02-11T12:01:27.877Z,81.10
2023-02-11T12:03:58.417Z,81.30
2023-02-11T12:06:39.201Z,81.30
2023-02-11T12:09:19.326Z,81.30
2023-02-11T12:11:57.842Z,81.30
2023-02-11T12:14:28.491Z,81.30
2023-02-11T12:16:55.937Z,81.10
2023-02-11T12:19:43.395Z,80.80
2023-02-11T12:22:23.406Z,80.60
2023-02-11T12:25:04.473Z,80.40
2023-02-11T12:27:31.966Z,80.40
2023-02-11T12:30:14.735Z,80.40
2023-02-11T12:33:00.851Z,80.30
2023-02-11T12:35:28.365Z,80.20
2023-02-11T12:38:16.123Z,80.40
2023-02-11T12:41:10.364Z,80.20
2023-02-11T12:43:39.395Z,80.00
2023-02-11T12:46:25.767Z,79.90
2023-02-11T12:48:53.250Z,79.90
2023-02-11T12:51:26.770Z,79.60
2023-02-11T12:53:57.238Z,79.30
2023-02-11T12:56:28.313Z,78.50
2023-02-11T12:58:57.505Z,78.10
2023-02-11T13:01:27.854Z,77.50
2023-02-11T13:03:55.289Z,77.60
2023-02-11T13:06:28.204Z,77.60
2023-02-11T13:09:00.890Z,77.70
2023-02-11T13:11:29.514Z,77.90
2023-02-11T13:14:00.062Z,78.10
2023-02-11T13:16:27.662Z,78.30
2023-02-11T13:19:07.305Z,78.50
2023-02-11T13:21:34.950Z,78.80
2023-02-11T13:24:08.416Z,79.10
2023-02-11T13:26:38.852Z,79.40
2023-02-11T13:29:09.343Z,79.70
2023-02-11T13:31:36.998Z,79.80
2023-02-11T13:34:20.444Z,79.90
2023-02-11T13:36:54.076Z,80.10
2023-02-11T13:39:22.166Z,80.30
2023-02-11T13:41:52.747Z,80.50
2023-02-11T13:44:23.596Z,80.60
2023-02-11T13:46:51.152Z,80.80
2023-02-11T13:49:20.706Z,81.00
2023-02-11T13:51:48.424Z,81.00
2023-02-11T13:54:21.328Z,81.10
2023-02-11T13:57:08.808Z,81.20
2023-02-11T13:59:36.166Z,81.10
2023-02-11T14:02:24.447Z,80.90
2023-02-11T14:05:23.110Z,80.70
2023-02-11T14:08:28.108Z,80.60
2023-02-11T14:10:55.640Z,80.70
2023-02-11T14:13:25.504Z,80.50
2023-02-11T14:16:11.426Z,80.40
2023-02-11T14:18:57.353Z,80.30
2023-02-11T14:21:27.964Z,80.30
2023-02-11T14:24:01.682Z,80.10
2023-02-11T14:26:34.125Z,79.90
2023-02-11T14:29:14.199Z,79.70
2023-02-11T14:31:47.875Z,79.50
2023-02-11T14:34:21.496Z,79.30
2023-02-11T14:37:09.262Z,79.20
2023-02-11T14:39:45.887Z,78.60
2023-02-11T14:42:17.311Z,78.20
2023-02-11T14:44:45.244Z,78.00
2023-02-11T14:47:17.395Z,78.00
2023-02-11T14:49:45.057Z,78.00
2023-02-11T14:52:18.608Z,78.00
2023-02-11T14:54:48.628Z,77.90
2023-02-11T14:57:17.544Z,78.00
2023-02-11T15:00:02.884Z,78.30
2023-02-11T15:02:36.738Z,78.50
2023-02-11T15:05:19.042Z,78.70
2023-02-11T15:07:47.812Z,78.80
2023-02-11T15:10:17.882Z,78.90
2023-02-11T15:12:48.009Z,79.00
2023-02-11T15:15:16.144Z,79.00
2023-02-11T15:17:43.935Z,79.10
2023-02-11T15:20:20.500Z,78.80
2023-02-11T15:22:49.490Z,78.80
2023-02-11T15:25:19.486Z,78.80
2023-02-11T15:27:49.382Z,78.90
2023-02-11T15:30:23.072Z,79.00
2023-02-11T15:32:51.377Z,79.20
2023-02-11T15:35:18.873Z,79.30
2023-02-11T15:37:48.289Z,79.40
2023-02-11T15:40:23.068Z,79.50
2023-02-11T15:43:10.163Z,79.50
2023-02-11T15:46:04.177Z,79.50
2023-02-11T15:48:36.533Z,79.40
2023-02-11T15:51:34.701Z,79.40
2023-02-11T15:54:04.194Z,79.40
2023-02-11T15:56:37.687Z,79.30
2023-02-11T15:59:28.455Z,79.20
2023-02-11T16:01:57.504Z,79.10
2023-02-11T16:04:26.324Z,79.20
2023-02-11T16:06:54.763Z,79.20
2023-02-11T16:09:33.747Z,79.20
2023-02-11T16:12:03.789Z,79.20
2023-02-11T16:14:33.169Z,79.20
2023-02-11T16:17:00.559Z,79.30
2023-02-11T16:19:28.564Z,79.30
2023-02-11T16:21:57.576Z,79.40
2023-02-11T16:24:28.190Z,79.50
2023-02-11T16:26:57.591Z,79.60
2023-02-11T16:29:29.690Z,79.70
2023-02-11T16:32:15.823Z,79.70
2023-02-11T16:34:43.409Z,79.80
2023-02-11T16:37:10.894Z,79.90
2023-02-11T16:39:38.303Z,79.90
2023-02-11T16:42:07.716Z,80.00
2023-02-11T16:44:35.334Z,80.10
2023-02-11T16:47:04.035Z,80.10
2023-02-11T16:49:36.181Z,80.10
2023-02-11T16:52:06.512Z,80.20
2023-02-11T16:54:36.957Z,80.20
2023-02-11T16:57:19.686Z,80.30
2023-02-11T16:59:47.209Z,80.30
2023-02-11T17:02:16.949Z,80.30
2023-02-11T17:04:44.749Z,80.40
2023-02-11T17:07:12.407Z,80.50
2023-02-11T17:09:40.112Z,80.50
2023-02-11T17:12:07.516Z,80.60
2023-02-11T17:14:35.106Z,80.70
2023-02-11T17:17:02.608Z,80.80
2023-02-11T17:19:30.060Z,80.90
2023-02-11T17:21:57.476Z,80.90
2023-02-11T17:24:24.845Z,81.00
2023-02-11T17:26:52.290Z,81.10
2023-02-11T17:29:21.824Z,81.10
2023-02-11T17:31:49.518Z,81.20
2023-02-11T17:34:17.144Z,81.30
2023-02-11T17:36:44.642Z,81.40
2023-02-11T17:39:12.316Z,81.50
2023-02-11T17:41:40.075Z,81.50
2023-02-11T17:44:08.662Z,81.50
2023-02-11T17:46:36.416Z,81.60
2023-02-11T17:49:04.402Z,81.60
2023-02-11T17:51:33.515Z,81.70
2023-02-11T17:54:02.622Z,81.80
2023-02-11T17:56:32.351Z,81.80
2023-02-11T17:58:59.880Z,81.90
2023-02-11T18:01:28.070Z,81.90
2023-02-11T18:03:55.543Z,82.00
2023-02-11T18:06:23.024Z,82.00
2023-02-11T18:08:50.484Z,82.00
2023-02-11T18:11:21.629Z,81.90
2023-02-11T18:13:54.341Z,82.00
2023-02-11T18:16:22.886Z,82.00
2023-02-11T18:18:50.665Z,82.10
2023-02-11T18:21:19.022Z,82.10
2023-02-11T18:23:46.584Z,82.20
2023-02-11T18:26:14.580Z,82.30
2023-02-11T18:28:45.264Z,82.30
2023-02-11T18:31:14.174Z,82.40
2023-02-11T18:33:42.363Z,82.50
2023-02-11T18:36:11.249Z,82.50
2023-02-11T18:38:38.863Z,82.60
2023-02-11T18:41:07.524Z,82.60
2023-02-11T18:43:34.985Z,82.70
2023-02-11T18:46:06.284Z,82.80
2023-02-11T18:48:33.808Z,82.80
2023-02-11T18:51:01.272Z,82.80
2023-02-11T18:53:28.738Z,82.80
2023-02-11T18:55:56.120Z,82.90
2023-02-11T18:58:23.551Z,82.90
2023-02-11T19:00:51.189Z,83.00
2023-02-11T19:03:18.639Z,83.00
2023-02-11T19:05:47.267Z,83.10
2023-02-11T19:08:14.978Z,83.10
2023-02-11T19:10:43.624Z,83.10
2023-02-11T19:13:11.384Z,83.20
2023-02-11T19:15:45.574Z,83.20
2023-02-11T19:18:14.272Z,83.30
2023-02-11T19:20:42.438Z,83.30
2023-02-11T19:23:10.330Z,83.40
2023-02-11T19:25:37.871Z,83.40
2023-02-11T19:28:05.444Z,83.50
2023-02-11T19:30:32.935Z,83.50
2023-02-11T19:33:00.335Z,83.60
2023-02-11T19:35:27.785Z,83.60
2023-02-11T19:37:55.226Z,83.60
2023-02-11T19:40:22.951Z,83.60
2023-02-11T19:42:50.324Z,83.70
2023-02-11T19:45:17.829Z,83.70
2023-02-11T19:47:45.195Z,83.80
2023-02-11T19:50:12.653Z,83.80
2023-02-11T19:52:40.731Z,83.80
2023-02-11T19:55:08.354Z,83.90
2023-02-11T19:57:36.512Z,84.00
2023-02-11T20:00:04.646Z,84.00
2023-02-11T20:02:40.075Z,84.10
2023-02-11T20:05:07.885Z,84.20
2023-02-11T20:07:35.401Z,84.20
2023-02-11T20:10:03.392Z,84.30
2023-02-11T20:12:30.835Z,84.30
2023-02-11T20:14:58.279Z,84.30
2023-02-11T20:17:25.769Z,84.30
2023-02-11T20:19:53.280Z,84.30
2023-02-11T20:22:20.710Z,84.40
2023-02-11T20:24:48.253Z,84.40
2023-02-11T20:27:17.307Z,84.40
2023-02-11T20:29:46.028Z,84.40
2023-02-11T20:32:14.715Z,84.50
2023-02-11T20:34:42.383Z,84.50
2023-02-11T20:37:10.534Z,84.60
2023-02-11T20:39:40.950Z,84.60
2023-02-11T20:42:11.896Z,84.60
2023-02-11T20:44:39.411Z,84.70
2023-02-11T20:47:07.070Z,84.70
2023-02-11T20:49:34.524Z,84.70
2023-02-11T20:52:01.963Z,84.70
2023-02-11T20:54:30.369Z,84.80
2023-02-11T20:56:58.438Z,84.80
2023-02-11T20:59:26.593Z,84.80
2023-02-11T21:01:55.641Z,84.90
2023-02-11T21:04:25.057Z,84.90
2023-02-11T21:06:54.217Z,84.90
2023-02-11T21:09:22.994Z,84.90
2023-02-11T21:11:51.910Z,85.00
2023-02-11T21:14:20.016Z,85.00
2023-02-11T21:16:47.852Z,85.00
2023-02-11T21:19:15.410Z,85.10
2023-02-11T21:21:43.145Z,85.10
2023-02-11T21:24:10.593Z,85.10
2023-02-11T21:26:38.644Z,85.10
2023-02-11T21:29:06.565Z,85.10
2023-02-11T21:31:35.002Z,85.10
2023-02-11T21:34:02.624Z,85.10
2023-02-11T21:36:30.264Z,85.20
2023-02-11T21:38:58.101Z,85.20
2023-02-11T21:41:27.392Z,85.20
2023-02-11T21:43:54.950Z,85.30
2023-02-11T21:46:22.966Z,85.30
2023-02-11T21:48:50.605Z,85.40
2023-02-11T21:51:23.229Z,85.40
2023-02-11T21:53:57.718Z,85.50
2023-02-11T21:56:28.522Z,85.50
2023-02-11T21:58:56.696Z,85.50
2023-02-11T22:01:28.563Z,85.50
2023-02-11T22:03:56.407Z,85.50
2023-02-11T22:06:31.251Z,85.50
2023-02-11T22:08:59.498Z,85.50
2023-02-11T22:11:27.019Z,85.60
2023-02-11T22:13:55.533Z,85.60
2023-02-11T22:16:23.131Z,85.60
2023-02-11T22:18:51.608Z,85.60
2023-02-11T22:21:20.479Z,85.60
2023-02-11T22:23:48.033Z,85.70
2023-02-11T22:26:19.959Z,85.70
2023-02-11T22:28:47.947Z,85.70
2023-02-11T22:31:17.621Z,85.80
2023-02-11T22:33:46.088Z,85.80
2023-02-11T22:36:18.610Z,85.90
2023-02-11T22:38:46.184Z,85.90
2023-02-11T22:41:13.788Z,85.90
2023-02-11T22:43:41.778Z,85.90
2023-02-11T22:46:09.752Z,85.90
2023-02-11T22:48:37.235Z,85.90
2023-02-11T22:51:05.745Z,86.00
2023-02-11T22:53:33.270Z,86.00
2023-02-11T22:56:04.589Z,86.00
2023-02-11T22:58:32.027Z,86.10
2023-02-11T23:00:59.599Z,86.10
2023-02-11T23:03:28.229Z,86.20
2023-02-11T23:05:57.415Z,86.20
2023-02-11T23:08:25.281Z,86.20
2023-02-11T23:10:52.801Z,86.10
2023-02-11T23:13:20.256Z,86.20
2023-02-11T23:15:48.000Z,86.20
2023-02-11T23:18:15.519Z,86.30
2023-02-11T23:20:43.590Z,86.30
2023-02-11T23:23:11.145Z,86.30
2023-02-11T23:25:45.101Z,86.30
2023-02-11T23:28:13.031Z,86.30
2023-02-11T23:30:41.550Z,86.40
2023-02-11T23:33:08.929Z,86.40
2023-02-11T23:35:36.537Z,86.40
2023-02-11T23:38:03.934Z,86.40
2023-02-11T23:40:31.378Z,86.50
2023-02-11T23:42:58.770Z,86.50
2023-02-11T23:45:26.437Z,86.50
2023-02-11T23:47:53.842Z,86.60
2023-02-11T23:50:21.381Z,86.60
2023-02-11T23:52:48.877Z,86.60
2023-02-11T23:55:16.376Z,86.60
2023-02-11T23:57:43.861Z,86.60
